Accueil
METAR-TAF:

METAR-TAF

Aéroports :

Cassel, Allemagne

latitude: 51-24N, longitude: 009-23E, altitude: 277 m

Observation

Le bulletin a été fait il y a 24 minutes, à 13:50 UTC
Vent 8 kt de ouest/nord-ouest
Température 21°C
Humidité 69%
Pression 1024 hPa
Visibilité 10 km ou plus
Quelques nuages à une hauteur de 2300 ft
Nuages fragmentés à une hauteur de 4600 ft

METAR: EDVK 191350Z 30008KT 9999 FEW023 BKN046 21/15 Q1024

Heure: 16:14 (14:14 UTC)

Prévision

Le bulletin a été fait il y a 3 heures et 14 minutes, à 11:00 UTC
Prévision valable du 19 à 12 UTC au 19 à 21 UTC
Vent 7 kt de ouest/nord-ouest
Visibilité 10 km ou plus
Quelques nuages à une hauteur de 2500 ft
Nuages fragmentés à une hauteur de 4000 ft

TAF: EDVK 191100Z 1912/1921 29007KT 9999 FEW025 BKN040

Observations et prévisions météorologiques de plus de 4000 aéroports (messages METAR et TAF).

Les stations disponibles sont représentées par des disques jaunes et rouges sur la carte.

Passer la souris dessus pour voir le nom de la station.

Cliquer dessus pour voir les observations et prévisions météorologiques.

Pour changer de carte: cliquez sur les boutons verts avec une croix noire pour zoomer, sur le bouton vert avec un tiret pour effectuer un zoom arrière, ou sur les flèches vertes pour les cartes adjacentes.


METAR-TAF: